Meteo Giornale » Osservazioni meteo Marocco » Oujda
ore: 18:00 - Osservazioni Meteo Oujda
Lat. 34° 47' N Lon. 1° 56' W Alt. 468 metri s.l.m.
30 °C
Nuvoloso
Temp. 24 Ore
22 °C
38 °C
Nord
29.6 Km/h
Dew point 21 °C
Umidità 58 %
Visibilità 10 Km
Il sole sorge alle ore 06:40
Il sole tramonta alle ore 19:34
| Data e Ora | Cielo e Fenomeni | T °C | DP °C | Um. % | Pres. hPa | Vis. km | Vento km/h | |
|---|---|---|---|---|---|---|---|---|
| Oggi h: 18:00 | Nuvoloso | 30 | 21 | 58 | 1017 | 10 | N 29.6 | |
| Oggi h: 17:30 | Nuvoloso | 31 | 21 | 55 | 1017 | 10 | N 27.8 | |
| Oggi h: 17:00 | Nuvoloso | 33 | 21 | 49 | 1016 | 10 | N 31.5 | |
| Oggi h: 16:30 | Poco Nuvoloso | 34 | 21 | 46 | 1016 | 10 | N 31.5 | |
| Oggi h: 16:00 | Poco Nuvoloso | 35 | 21 | 44 | 1017 | 10 | N 33.3 | |
| Oggi h: 15:30 | Poco Nuvoloso | 36 | 19 | 36 | 1017 | 10 | N 31.5 | |
| Oggi h: 15:00 | Poco Nuvoloso | 37 | 20 | 37 | 1017 | 10 | N 29.6 | |
| Oggi h: 14:30 | Poco Nuvoloso | 36 | 21 | 41 | 1017 | 10 | N 27.8 | |
| Oggi h: 14:00 | Poco Nuvoloso | 38 | 19 | 33 | 1018 | 10 | E/NE 11.1 | |
| Oggi h: 13:30 | Poco Nuvoloso | 37 | 17 | 30 | 1018 | 10 | E 13 | |
| Oggi h: 13:00 | Poco Nuvoloso | 37 | 14 | 25 | 1018 | 10 | E 14.8 | |
| Oggi h: 12:30 | Sereno | 37 | 14 | 25 | 1018 | 10 | E 11.1 | |
| Oggi h: 12:00 | Sereno | 36 | 14 | 26 | 1019 | 10 | E/NE 9.3 | |
| Oggi h: 11:30 | Sereno | 34 | 16 | 34 | 1019 | 10 | N/NE 7.4 | |
| Oggi h: 11:00 | Sereno | 33 | 18 | 41 | 1020 | 10 | N 5.5 | |
| Oggi h: 10:30 | Sereno | 32 | 20 | 49 | 1020 | 10 | N 5.5 | |
| Oggi h: 10:00 | Sereno | 30 | 21 | 58 | 1020 | 10 | N 3.7 | |
| Oggi h: 09:30 | Nuvoloso | 27 | 21 | 69 | 1020 | 10 | N 5.5 | |
| Oggi h: 09:00 | Nuvoloso | 25 | 22 | 83 | 1020 | 10 | N/NO 9.3 | |
| Oggi h: 08:30 | Nuvoloso | 24 | 23 | 94 | 1020 | 6 | NO 9.3 | |
| Oggi h: 08:00 | Foschia | 23 | 23 | 100 | 1019 | 4 | N 3.7 | |
| Oggi h: 07:30 | Foschia | 23 | 23 | 100 | 1019 | 2 | N 5.5 | |
| Oggi h: 07:00 | Coperto | 23 | 23 | 100 | 1019 | 9 | E/SE 9.3 | |
| Oggi h: 06:30 | Foschia | 22 | 22 | 100 | 1019 | 3 | N 3.7 | |
| Oggi h: 06:00 | Nuvoloso | 22 | 22 | 100 | 1019 | 10 | N 1.8 | |
| Oggi h: 05:30 | Molto Nuvoloso | 23 | 22 | 94 | 1019 | 8 | N 5.5 | |
| Oggi h: 05:00 | Molto Nuvoloso | 23 | 23 | 100 | 1019 | 8 | N 5.5 | |
| Oggi h: 04:30 | Molto Nuvoloso | 23 | 23 | 100 | 1019 | 8 | N 3.7 | |
| Oggi h: 04:00 | Molto Nuvoloso | 23 | 23 | 100 | 1019 | 8 | N 11.1 | |
| Oggi h: 03:30 | Molto Nuvoloso | 23 | 23 | 100 | 1019 | 8 | N 14.8 | |
| Oggi h: 03:00 | Molto Nuvoloso | 24 | 22 | 88 | 1019 | 8 | N/NO 24 | |
| Oggi h: 02:30 | Sereno | 24 | 21 | 83 | 1019 | 10 | N 18.5 | |
| Oggi h: 02:00 | Sereno | 25 | 21 | 78 | 1019 | 10 | N 9.3 | |
| Oggi h: 01:30 | Molto Nuvoloso | 25 | 21 | 78 | 1019 | 10 | NO 7.4 | |
| Oggi h: 01:00 | Molto Nuvoloso | 25 | 21 | 78 | 1019 | 10 | O/NO 13 | |
| Oggi h: 00:30 | Molto Nuvoloso | 26 | 21 | 73 | 1020 | 10 | N 3.7 | |
| Oggi h: 00:00 | Molto Nuvoloso | 26 | 21 | 73 | 1020 | 10 | N 5.5 | |
| Ieri h: 23:30 | Molto Nuvoloso | 26 | 21 | 73 | 1020 | 10 | E/NE 11.1 | |
| Ieri h: 23:00 | Coperto | 25 | 21 | 78 | 1020 | 10 | N 5.5 | |
| Ieri h: 22:30 | Molto Nuvoloso | 25 | 21 | 78 | 1021 | 10 | S/SE 9.3 | |
| Ieri h: 22:00 | Coperto | 25 | 21 | 78 | 1020 | 10 | O/SO 14.8 | |
| Ieri h: 21:30 | Temporale | 25 | 22 | 83 | 1020 | 10 | NO 16.7 | |
| Ieri h: 21:00 | Coperto | 25 | 22 | 83 | 1020 | 10 | N 18.5 | |
| Ieri h: 20:30 | Temporale | 25 | 22 | 83 | 1019 | 10 | N/NO 22.2 | |
| Ieri h: 20:00 | Temporale | 26 | 21 | 73 | 1020 | 10 | N 22.2 | |
| Ieri h: 19:30 | Temporale | 26 | 21 | 73 | 1018 | 10 | N 20.3 | |
| Ieri h: 19:00 | Molto Nuvoloso | 26 | 21 | 73 | 1018 | 10 | N 25.9 | |



